KEST/EST METAR and TAF weather

Enter ICAO airport designator
Station Type Date Time Source
KEST METAR 2024/02/21 00:52 UTC NOAA

KEST 210052Z AUTO 09006KT 10SM SCT100 BKN120 06/01 A2993 RMK AO2 SLP147 T00560011


Station Type Date Time Source
KEST Decoded METAR 2024/02/21 00:52 UTC NOAA

ESTHERVILLE MUNICIPAL AIRPORT , IA, United States (KEST) 43-24N 94-45W 401M
Feb 20, 2024 - 07:52 PM EST / 2024.02.21 0052 UTC
Wind: from the E (090 degrees) at 7 MPH (6 KT):0
Visibility: 10 mile(s):0
Sky conditions: mostly cloudy
Temperature: 42.1 F (5.6 C)
Dew Point: 34.0 F (1.1 C)
Relative Humidity: 72%
Pressure (altimeter): 29.93 in. Hg (1013 hPa)
ob: KEST 210052Z AUTO 09006KT 10SM SCT100 BKN120 06/01 A2993 RMK AO2 SLP147 T00560011
cycle: 1

Station Type Date Time Source
KEST TAF UTC NOAA

Error!

Example: see airport list